sensor_id;sensor_type;location;lat;lon;timestamp;temperature;humidity
27540;DHT22;15906;52.046;4.724;2023-08-08T00:01:48;16.60;99.90
27540;DHT22;15906;52.046;4.724;2023-08-08T00:04:14;16.60;99.90
27540;DHT22;15906;52.046;4.724;2023-08-08T00:06:39;16.60;99.90
27540;DHT22;15906;52.046;4.724;2023-08-08T00:09:05;16.60;99.90
27540;DHT22;15906;52.046;4.724;2023-08-08T00:11:30;16.60;99.90
27540;DHT22;15906;52.046;4.724;2023-08-08T00:13:56;16.50;99.90
27540;DHT22;15906;52.046;4.724;2023-08-08T00:16:23;16.60;99.90
27540;DHT22;15906;52.046;4.724;2023-08-08T00:18:48;16.50;99.90
27540;DHT22;15906;52.046;4.724;2023-08-08T00:21:20;16.50;99.90
27540;DHT22;15906;52.046;4.724;2023-08-08T00:23:46;16.60;99.90
27540;DHT22;15906;52.046;4.724;2023-08-08T00:26:11;16.70;99.90
27540;DHT22;15906;52.046;4.724;2023-08-08T00:28:37;16.60;99.90
27540;DHT22;15906;52.046;4.724;2023-08-08T00:31:03;16.50;99.90
27540;DHT22;15906;52.046;4.724;2023-08-08T00:33:28;16.60;99.90
27540;DHT22;15906;52.046;4.724;2023-08-08T00:35:54;16.50;99.90
27540;DHT22;15906;52.046;4.724;2023-08-08T00:38:19;16.60;99.90
27540;DHT22;15906;52.046;4.724;2023-08-08T00:40:45;16.60;99.90
27540;DHT22;15906;52.046;4.724;2023-08-08T00:43:11;16.50;99.90
27540;DHT22;15906;52.046;4.724;2023-08-08T00:45:37;16.50;99.90
27540;DHT22;15906;52.046;4.724;2023-08-08T00:48:04;16.40;99.90
27540;DHT22;15906;52.046;4.724;2023-08-08T00:50:29;16.40;99.90
27540;DHT22;15906;52.046;4.724;2023-08-08T00:52:55;16.30;99.90
27540;DHT22;15906;52.046;4.724;2023-08-08T00:55:21;16.30;99.90
27540;DHT22;15906;52.046;4.724;2023-08-08T00:57:47;16.20;99.90
27540;DHT22;15906;52.046;4.724;2023-08-08T01:00:13;16.20;99.90
27540;DHT22;15906;52.046;4.724;2023-08-08T01:02:38;16.20;99.90
27540;DHT22;15906;52.046;4.724;2023-08-08T01:05:05;16.10;99.90
27540;DHT22;15906;52.046;4.724;2023-08-08T01:10:15;16.00;99.90
27540;DHT22;15906;52.046;4.724;2023-08-08T01:12:50;16.00;99.90
27540;DHT22;15906;52.046;4.724;2023-08-08T01:15:16;15.90;99.90
27540;DHT22;15906;52.046;4.724;2023-08-08T01:17:43;15.90;99.90
27540;DHT22;15906;52.046;4.724;2023-08-08T01:20:11;15.80;99.90
27540;DHT22;15906;52.046;4.724;2023-08-08T01:25:26;15.70;99.90
27540;DHT22;15906;52.046;4.724;2023-08-08T01:27:51;15.70;99.90
27540;DHT22;15906;52.046;4.724;2023-08-08T01:30:17;15.70;99.90
27540;DHT22;15906;52.046;4.724;2023-08-08T01:32:42;15.80;99.90
27540;DHT22;15906;52.046;4.724;2023-08-08T01:35:08;15.90;99.90
27540;DHT22;15906;52.046;4.724;2023-08-08T01:37:41;15.90;99.90
27540;DHT22;15906;52.046;4.724;2023-08-08T01:40:10;15.80;99.90
27540;DHT22;15906;52.046;4.724;2023-08-08T01:42:37;15.70;99.90
27540;DHT22;15906;52.046;4.724;2023-08-08T01:45:03;15.70;99.90
27540;DHT22;15906;52.046;4.724;2023-08-08T01:47:30;15.70;99.90
27540;DHT22;15906;52.046;4.724;2023-08-08T01:49:56;15.80;99.90
27540;DHT22;15906;52.046;4.724;2023-08-08T01:52:21;15.70;99.90
27540;DHT22;15906;52.046;4.724;2023-08-08T01:54:48;15.60;99.90
27540;DHT22;15906;52.046;4.724;2023-08-08T01:57:13;15.60;99.90
27540;DHT22;15906;52.046;4.724;2023-08-08T01:59:39;15.60;99.90
27540;DHT22;15906;52.046;4.724;2023-08-08T02:02:04;15.50;99.90
27540;DHT22;15906;52.046;4.724;2023-08-08T02:04:30;15.50;99.90
27540;DHT22;15906;52.046;4.724;2023-08-08T02:06:55;15.50;99.90
27540;DHT22;15906;52.046;4.724;2023-08-08T02:09:21;15.50;99.90
27540;DHT22;15906;52.046;4.724;2023-08-08T02:11:46;15.40;99.90
27540;DHT22;15906;52.046;4.724;2023-08-08T02:14:12;15.40;99.90
27540;DHT22;15906;52.046;4.724;2023-08-08T02:16:37;15.30;99.90
27540;DHT22;15906;52.046;4.724;2023-08-08T02:19:04;15.30;99.90
27540;DHT22;15906;52.046;4.724;2023-08-08T02:21:30;15.20;99.90
27540;DHT22;15906;52.046;4.724;2023-08-08T02:23:55;15.30;99.90
27540;DHT22;15906;52.046;4.724;2023-08-08T02:26:21;15.20;99.90
27540;DHT22;15906;52.046;4.724;2023-08-08T02:28:46;15.20;99.90
27540;DHT22;15906;52.046;4.724;2023-08-08T02:31:12;15.20;99.90
27540;DHT22;15906;52.046;4.724;2023-08-08T02:33:38;15.20;99.90
27540;DHT22;15906;52.046;4.724;2023-08-08T02:36:03;15.20;99.90
27540;DHT22;15906;52.046;4.724;2023-08-08T02:38:29;15.10;99.90
27540;DHT22;15906;52.046;4.724;2023-08-08T02:40:55;15.00;99.90
27540;DHT22;15906;52.046;4.724;2023-08-08T02:43:20;15.00;99.90
27540;DHT22;15906;52.046;4.724;2023-08-08T02:45:46;15.00;99.90
27540;DHT22;15906;52.046;4.724;2023-08-08T02:48:11;14.90;99.90
27540;DHT22;15906;52.046;4.724;2023-08-08T02:50:37;14.90;99.90
27540;DHT22;15906;52.046;4.724;2023-08-08T02:53:02;15.00;99.90
27540;DHT22;15906;52.046;4.724;2023-08-08T02:55:28;14.90;99.90
27540;DHT22;15906;52.046;4.724;2023-08-08T02:57:53;14.90;99.90
27540;DHT22;15906;52.046;4.724;2023-08-08T03:00:19;15.00;99.90
27540;DHT22;15906;52.046;4.724;2023-08-08T03:02:45;15.00;99.90
27540;DHT22;15906;52.046;4.724;2023-08-08T03:05:10;15.00;99.90
27540;DHT22;15906;52.046;4.724;2023-08-08T03:07:36;15.00;99.90
27540;DHT22;15906;52.046;4.724;2023-08-08T03:10:01;15.00;99.90
27540;DHT22;15906;52.046;4.724;2023-08-08T03:12:27;15.00;99.90
27540;DHT22;15906;52.046;4.724;2023-08-08T03:14:53;15.00;99.90
27540;DHT22;15906;52.046;4.724;2023-08-08T03:17:18;15.00;99.90
27540;DHT22;15906;52.046;4.724;2023-08-08T03:19:44;15.00;99.90
27540;DHT22;15906;52.046;4.724;2023-08-08T03:22:10;14.90;99.90
27540;DHT22;15906;52.046;4.724;2023-08-08T03:24:35;14.90;99.90
27540;DHT22;15906;52.046;4.724;2023-08-08T03:27:01;14.90;99.90
27540;DHT22;15906;52.046;4.724;2023-08-08T03:29:26;15.00;99.90
27540;DHT22;15906;52.046;4.724;2023-08-08T03:31:52;15.00;99.90
27540;DHT22;15906;52.046;4.724;2023-08-08T03:34:17;15.00;99.90
27540;DHT22;15906;52.046;4.724;2023-08-08T03:36:43;15.00;99.90
27540;DHT22;15906;52.046;4.724;2023-08-08T03:39:08;15.00;99.90
27540;DHT22;15906;52.046;4.724;2023-08-08T03:41:34;14.90;99.90
27540;DHT22;15906;52.046;4.724;2023-08-08T03:43:59;14.90;99.90
27540;DHT22;15906;52.046;4.724;2023-08-08T03:46:25;15.00;99.90
27540;DHT22;15906;52.046;4.724;2023-08-08T03:48:51;14.90;99.90
27540;DHT22;15906;52.046;4.724;2023-08-08T03:51:16;14.90;99.90
27540;DHT22;15906;52.046;4.724;2023-08-08T03:53:42;14.80;99.90
27540;DHT22;15906;52.046;4.724;2023-08-08T03:56:07;14.70;99.90
27540;DHT22;15906;52.046;4.724;2023-08-08T03:58:33;14.70;99.90
27540;DHT22;15906;52.046;4.724;2023-08-08T04:00:58;14.70;99.90
27540;DHT22;15906;52.046;4.724;2023-08-08T04:03:24;14.70;99.90
27540;DHT22;15906;52.046;4.724;2023-08-08T04:05:49;14.70;99.90
27540;DHT22;15906;52.046;4.724;2023-08-08T04:08:15;14.60;99.90
27540;DHT22;15906;52.046;4.724;2023-08-08T04:10:41;14.60;99.90
27540;DHT22;15906;52.046;4.724;2023-08-08T04:13:07;14.60;99.90
27540;DHT22;15906;52.046;4.724;2023-08-08T04:15:33;14.60;99.90
27540;DHT22;15906;52.046;4.724;2023-08-08T04:17:58;14.60;99.90
27540;DHT22;15906;52.046;4.724;2023-08-08T04:20:24;14.70;99.90
27540;DHT22;15906;52.046;4.724;2023-08-08T04:22:50;14.60;99.90
27540;DHT22;15906;52.046;4.724;2023-08-08T04:25:15;14.50;99.90
27540;DHT22;15906;52.046;4.724;2023-08-08T04:27:41;14.50;99.90
27540;DHT22;15906;52.046;4.724;2023-08-08T04:30:07;14.50;99.90
27540;DHT22;15906;52.046;4.724;2023-08-08T04:32:34;14.50;99.90
27540;DHT22;15906;52.046;4.724;2023-08-08T04:34:59;14.50;99.90
27540;DHT22;15906;52.046;4.724;2023-08-08T04:37:25;14.40;99.90
27540;DHT22;15906;52.046;4.724;2023-08-08T04:39:50;14.50;99.90
27540;DHT22;15906;52.046;4.724;2023-08-08T04:42:16;14.40;99.90
27540;DHT22;15906;52.046;4.724;2023-08-08T04:44:41;14.30;99.90
27540;DHT22;15906;52.046;4.724;2023-08-08T04:47:07;14.40;99.90
27540;DHT22;15906;52.046;4.724;2023-08-08T04:49:33;14.40;99.90
27540;DHT22;15906;52.046;4.724;2023-08-08T04:51:58;14.40;99.90
27540;DHT22;15906;52.046;4.724;2023-08-08T04:54:24;14.30;99.90
27540;DHT22;15906;52.046;4.724;2023-08-08T04:56:49;14.40;99.90
27540;DHT22;15906;52.046;4.724;2023-08-08T04:59:15;14.40;99.90
27540;DHT22;15906;52.046;4.724;2023-08-08T05:01:40;14.40;99.90
27540;DHT22;15906;52.046;4.724;2023-08-08T05:04:06;14.40;99.90
27540;DHT22;15906;52.046;4.724;2023-08-08T05:06:31;14.40;99.90
27540;DHT22;15906;52.046;4.724;2023-08-08T05:08:57;14.40;99.90
27540;DHT22;15906;52.046;4.724;2023-08-08T05:11:23;14.60;99.90
27540;DHT22;15906;52.046;4.724;2023-08-08T05:13:48;14.60;99.90
27540;DHT22;15906;52.046;4.724;2023-08-08T05:16:14;14.60;99.90
27540;DHT22;15906;52.046;4.724;2023-08-08T05:18:39;14.60;99.90
27540;DHT22;15906;52.046;4.724;2023-08-08T05:21:06;14.60;99.90
27540;DHT22;15906;52.046;4.724;2023-08-08T05:23:31;14.50;99.90
27540;DHT22;15906;52.046;4.724;2023-08-08T05:25:57;14.50;99.90
27540;DHT22;15906;52.046;4.724;2023-08-08T05:28:22;14.60;99.90
27540;DHT22;15906;52.046;4.724;2023-08-08T05:30:48;14.60;99.90
27540;DHT22;15906;52.046;4.724;2023-08-08T05:33:13;14.60;99.90
27540;DHT22;15906;52.046;4.724;2023-08-08T05:35:39;14.70;99.90
27540;DHT22;15906;52.046;4.724;2023-08-08T05:38:04;14.60;99.90
27540;DHT22;15906;52.046;4.724;2023-08-08T05:40:30;14.60;99.90
27540;DHT22;15906;52.046;4.724;2023-08-08T05:42:55;14.70;99.90
27540;DHT22;15906;52.046;4.724;2023-08-08T05:45:21;14.60;99.90
27540;DHT22;15906;52.046;4.724;2023-08-08T05:47:46;14.70;99.90
27540;DHT22;15906;52.046;4.724;2023-08-08T05:50:12;14.80;99.90
27540;DHT22;15906;52.046;4.724;2023-08-08T05:52:38;14.80;99.90
27540;DHT22;15906;52.046;4.724;2023-08-08T05:55:03;15.00;99.90
27540;DHT22;15906;52.046;4.724;2023-08-08T05:57:29;15.00;99.90
27540;DHT22;15906;52.046;4.724;2023-08-08T05:59:55;15.00;99.90
27540;DHT22;15906;52.046;4.724;2023-08-08T06:02:20;15.10;99.90
27540;DHT22;15906;52.046;4.724;2023-08-08T06:04:46;15.20;99.90
27540;DHT22;15906;52.046;4.724;2023-08-08T06:07:11;15.20;99.90
27540;DHT22;15906;52.046;4.724;2023-08-08T06:09:37;15.20;99.90
27540;DHT22;15906;52.046;4.724;2023-08-08T06:12:03;15.30;99.90
27540;DHT22;15906;52.046;4.724;2023-08-08T06:14:29;15.40;99.90
27540;DHT22;15906;52.046;4.724;2023-08-08T06:16:55;15.50;99.90
27540;DHT22;15906;52.046;4.724;2023-08-08T06:19:20;15.60;99.90
27540;DHT22;15906;52.046;4.724;2023-08-08T06:21:46;15.70;99.90
27540;DHT22;15906;52.046;4.724;2023-08-08T06:24:12;15.80;99.90
27540;DHT22;15906;52.046;4.724;2023-08-08T06:26:38;15.80;99.90
27540;DHT22;15906;52.046;4.724;2023-08-08T06:29:03;15.90;99.90
27540;DHT22;15906;52.046;4.724;2023-08-08T06:31:29;15.90;99.90
27540;DHT22;15906;52.046;4.724;2023-08-08T06:33:55;16.00;99.90
27540;DHT22;15906;52.046;4.724;2023-08-08T06:36:21;16.10;99.90
27540;DHT22;15906;52.046;4.724;2023-08-08T06:38:46;16.20;99.90
27540;DHT22;15906;52.046;4.724;2023-08-08T06:41:12;16.30;99.90
27540;DHT22;15906;52.046;4.724;2023-08-08T06:43:39;16.40;99.90
27540;DHT22;15906;52.046;4.724;2023-08-08T06:46:04;16.50;99.90
27540;DHT22;15906;52.046;4.724;2023-08-08T06:48:30;16.60;99.90
27540;DHT22;15906;52.046;4.724;2023-08-08T06:50:55;16.70;99.90
27540;DHT22;15906;52.046;4.724;2023-08-08T06:53:21;16.80;99.90
27540;DHT22;15906;52.046;4.724;2023-08-08T06:55:47;17.00;99.90
27540;DHT22;15906;52.046;4.724;2023-08-08T06:58:12;17.00;99.90
27540;DHT22;15906;52.046;4.724;2023-08-08T07:00:38;17.10;99.90
27540;DHT22;15906;52.046;4.724;2023-08-08T07:03:03;17.30;99.90
27540;DHT22;15906;52.046;4.724;2023-08-08T07:05:29;17.40;99.90
27540;DHT22;15906;52.046;4.724;2023-08-08T07:07:54;17.60;99.90
27540;DHT22;15906;52.046;4.724;2023-08-08T07:10:20;17.40;99.90
27540;DHT22;15906;52.046;4.724;2023-08-08T07:12:46;17.20;99.90
27540;DHT22;15906;52.046;4.724;2023-08-08T07:15:12;17.40;99.90
27540;DHT22;15906;52.046;4.724;2023-08-08T07:17:38;17.40;99.90
27540;DHT22;15906;52.046;4.724;2023-08-08T07:20:04;17.30;99.90
27540;DHT22;15906;52.046;4.724;2023-08-08T07:22:31;17.50;99.90
27540;DHT22;15906;52.046;4.724;2023-08-08T07:24:57;17.60;99.90
27540;DHT22;15906;52.046;4.724;2023-08-08T07:27:23;17.90;99.90
27540;DHT22;15906;52.046;4.724;2023-08-08T07:29:48;17.80;99.90
27540;DHT22;15906;52.046;4.724;2023-08-08T07:32:14;17.90;99.90
27540;DHT22;15906;52.046;4.724;2023-08-08T07:34:40;17.90;99.90
27540;DHT22;15906;52.046;4.724;2023-08-08T07:37:05;18.00;99.90
27540;DHT22;15906;52.046;4.724;2023-08-08T07:39:31;18.10;99.90
27540;DHT22;15906;52.046;4.724;2023-08-08T07:41:56;18.10;99.90
27540;DHT22;15906;52.046;4.724;2023-08-08T07:44:22;18.30;99.90
27540;DHT22;15906;52.046;4.724;2023-08-08T07:46:48;18.50;99.90
27540;DHT22;15906;52.046;4.724;2023-08-08T07:49:14;18.70;99.90
27540;DHT22;15906;52.046;4.724;2023-08-08T07:51:40;18.90;99.90
27540;DHT22;15906;52.046;4.724;2023-08-08T07:54:05;19.10;99.90
27540;DHT22;15906;52.046;4.724;2023-08-08T07:56:34;19.10;99.90
27540;DHT22;15906;52.046;4.724;2023-08-08T07:59:00;19.30;99.90
27540;DHT22;15906;52.046;4.724;2023-08-08T08:01:27;19.20;99.90
27540;DHT22;15906;52.046;4.724;2023-08-08T08:03:52;19.10;99.90
27540;DHT22;15906;52.046;4.724;2023-08-08T08:06:18;19.00;99.90
27540;DHT22;15906;52.046;4.724;2023-08-08T08:08:44;19.10;99.90
27540;DHT22;15906;52.046;4.724;2023-08-08T08:11:10;19.20;99.90
27540;DHT22;15906;52.046;4.724;2023-08-08T08:13:36;19.40;99.90
27540;DHT22;15906;52.046;4.724;2023-08-08T08:16:02;19.60;99.90
27540;DHT22;15906;52.046;4.724;2023-08-08T08:18:27;19.50;99.90
27540;DHT22;15906;52.046;4.724;2023-08-08T08:20:54;19.60;99.90
27540;DHT22;15906;52.046;4.724;2023-08-08T08:23:20;19.70;99.90
27540;DHT22;15906;52.046;4.724;2023-08-08T08:25:46;19.80;99.90
27540;DHT22;15906;52.046;4.724;2023-08-08T08:28:12;19.80;99.90
27540;DHT22;15906;52.046;4.724;2023-08-08T08:30:38;19.80;99.90
27540;DHT22;15906;52.046;4.724;2023-08-08T08:33:04;19.50;99.90
27540;DHT22;15906;52.046;4.724;2023-08-08T08:35:32;19.60;99.90
27540;DHT22;15906;52.046;4.724;2023-08-08T08:37:58;19.40;99.90
27540;DHT22;15906;52.046;4.724;2023-08-08T08:40:24;19.10;99.90
27540;DHT22;15906;52.046;4.724;2023-08-08T08:42:50;19.00;99.90
27540;DHT22;15906;52.046;4.724;2023-08-08T08:45:18;19.10;99.90
27540;DHT22;15906;52.046;4.724;2023-08-08T08:47:46;19.40;99.90
27540;DHT22;15906;52.046;4.724;2023-08-08T08:50:15;19.60;99.90
27540;DHT22;15906;52.046;4.724;2023-08-08T08:52:42;20.10;99.90
27540;DHT22;15906;52.046;4.724;2023-08-08T08:55:08;20.20;99.90
27540;DHT22;15906;52.046;4.724;2023-08-08T08:57:34;20.30;99.90
27540;DHT22;15906;52.046;4.724;2023-08-08T09:00:01;20.20;99.90
27540;DHT22;15906;52.046;4.724;2023-08-08T09:02:26;20.00;99.90
27540;DHT22;15906;52.046;4.724;2023-08-08T09:04:52;20.10;99.90
27540;DHT22;15906;52.046;4.724;2023-08-08T09:07:20;20.30;99.90
27540;DHT22;15906;52.046;4.724;2023-08-08T09:09:47;20.60;99.90
27540;DHT22;15906;52.046;4.724;2023-08-08T09:12:12;20.40;99.90
27540;DHT22;15906;52.046;4.724;2023-08-08T09:14:41;20.30;99.90
27540;DHT22;15906;52.046;4.724;2023-08-08T09:17:14;20.40;99.90
27540;DHT22;15906;52.046;4.724;2023-08-08T09:19:43;20.30;99.90
27540;DHT22;15906;52.046;4.724;2023-08-08T09:22:09;20.30;99.90
27540;DHT22;15906;52.046;4.724;2023-08-08T09:24:39;20.30;99.90
27540;DHT22;15906;52.046;4.724;2023-08-08T09:27:04;20.50;99.90
27540;DHT22;15906;52.046;4.724;2023-08-08T09:29:31;20.50;99.90
27540;DHT22;15906;52.046;4.724;2023-08-08T09:31:58;20.50;99.90
27540;DHT22;15906;52.046;4.724;2023-08-08T09:34:26;20.30;99.90
27540;DHT22;15906;52.046;4.724;2023-08-08T09:36:53;20.10;99.90
27540;DHT22;15906;52.046;4.724;2023-08-08T09:39:20;20.30;99.90
27540;DHT22;15906;52.046;4.724;2023-08-08T09:41:46;20.20;99.90
27540;DHT22;15906;52.046;4.724;2023-08-08T09:44:12;20.30;99.90
27540;DHT22;15906;52.046;4.724;2023-08-08T09:46:39;20.80;99.90
27540;DHT22;15906;52.046;4.724;2023-08-08T09:49:05;20.80;99.90
27540;DHT22;15906;52.046;4.724;2023-08-08T09:51:31;20.80;99.90
27540;DHT22;15906;52.046;4.724;2023-08-08T09:53:59;20.80;99.80
27540;DHT22;15906;52.046;4.724;2023-08-08T09:56:25;20.80;99.90
27540;DHT22;15906;52.046;4.724;2023-08-08T09:58:52;20.60;99.90
27540;DHT22;15906;52.046;4.724;2023-08-08T10:01:19;20.30;99.90
27540;DHT22;15906;52.046;4.724;2023-08-08T10:03:45;20.30;99.90
27540;DHT22;15906;52.046;4.724;2023-08-08T10:06:12;20.40;99.90
27540;DHT22;15906;52.046;4.724;2023-08-08T10:08:38;20.60;99.90
27540;DHT22;15906;52.046;4.724;2023-08-08T10:11:05;20.90;99.90
27540;DHT22;15906;52.046;4.724;2023-08-08T10:13:31;21.30;99.90
27540;DHT22;15906;52.046;4.724;2023-08-08T10:15:57;21.60;99.90
27540;DHT22;15906;52.046;4.724;2023-08-08T10:18:23;21.20;99.90
27540;DHT22;15906;52.046;4.724;2023-08-08T10:20:50;21.10;99.90
27540;DHT22;15906;52.046;4.724;2023-08-08T10:23:17;21.20;99.90
27540;DHT22;15906;52.046;4.724;2023-08-08T10:25:48;21.30;98.90
27540;DHT22;15906;52.046;4.724;2023-08-08T10:28:15;21.10;98.20
27540;DHT22;15906;52.046;4.724;2023-08-08T10:30:43;20.90;99.90
27540;DHT22;15906;52.046;4.724;2023-08-08T10:33:16;20.80;99.80
27540;DHT22;15906;52.046;4.724;2023-08-08T10:36:00;20.80;99.30
27540;DHT22;15906;52.046;4.724;2023-08-08T10:38:27;20.80;99.90
27540;DHT22;15906;52.046;4.724;2023-08-08T10:41:03;21.00;99.90
27540;DHT22;15906;52.046;4.724;2023-08-08T10:43:30;21.30;99.90
27540;DHT22;15906;52.046;4.724;2023-08-08T10:46:00;21.40;99.90
27540;DHT22;15906;52.046;4.724;2023-08-08T10:48:27;21.70;99.90
27540;DHT22;15906;52.046;4.724;2023-08-08T10:50:55;21.80;99.90
27540;DHT22;15906;52.046;4.724;2023-08-08T10:53:24;22.00;99.90
27540;DHT22;15906;52.046;4.724;2023-08-08T10:56:01;22.10;99.80
27540;DHT22;15906;52.046;4.724;2023-08-08T10:58:41;22.20;99.90
27540;DHT22;15906;52.046;4.724;2023-08-08T11:01:07;21.90;99.00
27540;DHT22;15906;52.046;4.724;2023-08-08T11:03:38;21.70;99.90
27540;DHT22;15906;52.046;4.724;2023-08-08T11:06:06;21.80;99.90
27540;DHT22;15906;52.046;4.724;2023-08-08T11:08:32;21.90;99.90
27540;DHT22;15906;52.046;4.724;2023-08-08T11:10:59;21.80;99.90
27540;DHT22;15906;52.046;4.724;2023-08-08T11:13:25;21.70;99.00
27540;DHT22;15906;52.046;4.724;2023-08-08T11:15:51;21.50;99.90
27540;DHT22;15906;52.046;4.724;2023-08-08T11:18:17;21.60;99.90
27540;DHT22;15906;52.046;4.724;2023-08-08T11:20:43;21.60;99.90
27540;DHT22;15906;52.046;4.724;2023-08-08T11:23:09;21.80;99.90
27540;DHT22;15906;52.046;4.724;2023-08-08T11:25:41;21.90;99.90
27540;DHT22;15906;52.046;4.724;2023-08-08T11:28:10;21.90;98.90
27540;DHT22;15906;52.046;4.724;2023-08-08T11:30:38;21.70;98.80
27540;DHT22;15906;52.046;4.724;2023-08-08T11:33:05;21.90;99.90
27540;DHT22;15906;52.046;4.724;2023-08-08T11:35:30;21.80;99.60
27540;DHT22;15906;52.046;4.724;2023-08-08T11:37:58;21.30;99.40
27540;DHT22;15906;52.046;4.724;2023-08-08T11:40:26;21.20;99.90
27540;DHT22;15906;52.046;4.724;2023-08-08T11:42:53;21.00;99.90
27540;DHT22;15906;52.046;4.724;2023-08-08T11:45:19;21.40;99.90
27540;DHT22;15906;52.046;4.724;2023-08-08T11:47:48;21.60;99.90
27540;DHT22;15906;52.046;4.724;2023-08-08T11:50:14;21.60;99.70
27540;DHT22;15906;52.046;4.724;2023-08-08T11:52:42;21.50;99.90
27540;DHT22;15906;52.046;4.724;2023-08-08T11:55:08;21.50;99.90
27540;DHT22;15906;52.046;4.724;2023-08-08T11:57:39;21.60;99.90
27540;DHT22;15906;52.046;4.724;2023-08-08T12:00:09;21.80;99.90
27540;DHT22;15906;52.046;4.724;2023-08-08T12:02:38;22.00;99.10
27540;DHT22;15906;52.046;4.724;2023-08-08T12:05:09;22.30;99.90
27540;DHT22;15906;52.046;4.724;2023-08-08T12:07:36;22.20;99.10
27540;DHT22;15906;52.046;4.724;2023-08-08T12:10:05;22.30;99.90
27540;DHT22;15906;52.046;4.724;2023-08-08T12:12:33;22.40;99.90
27540;DHT22;15906;52.046;4.724;2023-08-08T12:15:07;22.30;99.80
27540;DHT22;15906;52.046;4.724;2023-08-08T12:17:34;22.20;99.90
27540;DHT22;15906;52.046;4.724;2023-08-08T12:20:00;22.40;99.70
27540;DHT22;15906;52.046;4.724;2023-08-08T12:22:26;22.40;98.80
27540;DHT22;15906;52.046;4.724;2023-08-08T12:24:52;22.10;99.00
27540;DHT22;15906;52.046;4.724;2023-08-08T12:27:17;22.00;99.70
27540;DHT22;15906;52.046;4.724;2023-08-08T12:29:43;22.20;99.90
27540;DHT22;15906;52.046;4.724;2023-08-08T12:32:10;22.50;99.90
27540;DHT22;15906;52.046;4.724;2023-08-08T12:34:35;22.40;97.80
27540;DHT22;15906;52.046;4.724;2023-08-08T12:37:01;22.40;99.50
27540;DHT22;15906;52.046;4.724;2023-08-08T12:39:27;22.50;99.80
27540;DHT22;15906;52.046;4.724;2023-08-08T12:41:52;22.20;98.60
27540;DHT22;15906;52.046;4.724;2023-08-08T12:44:18;22.00;99.60
27540;DHT22;15906;52.046;4.724;2023-08-08T12:46:43;22.00;99.90
27540;DHT22;15906;52.046;4.724;2023-08-08T12:49:09;21.80;99.30
27540;DHT22;15906;52.046;4.724;2023-08-08T12:51:34;21.60;99.80
27540;DHT22;15906;52.046;4.724;2023-08-08T12:54:00;21.50;99.50
27540;DHT22;15906;52.046;4.724;2023-08-08T12:56:25;21.00;99.40
27540;DHT22;15906;52.046;4.724;2023-08-08T12:58:51;20.80;99.80
27540;DHT22;15906;52.046;4.724;2023-08-08T13:01:16;20.60;99.90
27540;DHT22;15906;52.046;4.724;2023-08-08T13:03:42;20.50;99.90
27540;DHT22;15906;52.046;4.724;2023-08-08T13:06:07;20.80;99.90
27540;DHT22;15906;52.046;4.724;2023-08-08T13:08:34;21.20;99.90
27540;DHT22;15906;52.046;4.724;2023-08-08T13:10:59;21.30;99.90
27540;DHT22;15906;52.046;4.724;2023-08-08T13:13:25;21.50;99.90
27540;DHT22;15906;52.046;4.724;2023-08-08T13:15:51;21.80;99.90
27540;DHT22;15906;52.046;4.724;2023-08-08T13:18:17;21.90;99.90
27540;DHT22;15906;52.046;4.724;2023-08-08T13:20:43;21.90;99.90
27540;DHT22;15906;52.046;4.724;2023-08-08T13:23:08;21.60;99.90
27540;DHT22;15906;52.046;4.724;2023-08-08T13:25:34;21.40;99.90
27540;DHT22;15906;52.046;4.724;2023-08-08T13:28:01;21.10;99.90
27540;DHT22;15906;52.046;4.724;2023-08-08T13:30:28;20.80;99.90
27540;DHT22;15906;52.046;4.724;2023-08-08T13:32:54;20.50;99.90
27540;DHT22;15906;52.046;4.724;2023-08-08T13:35:20;20.40;99.90
27540;DHT22;15906;52.046;4.724;2023-08-08T13:37:46;20.40;99.90
27540;DHT22;15906;52.046;4.724;2023-08-08T13:40:16;20.30;99.90
27540;DHT22;15906;52.046;4.724;2023-08-08T13:42:42;20.20;99.90
27540;DHT22;15906;52.046;4.724;2023-08-08T13:45:08;20.30;99.90
27540;DHT22;15906;52.046;4.724;2023-08-08T13:47:34;20.40;99.90
27540;DHT22;15906;52.046;4.724;2023-08-08T13:50:00;20.30;99.90
27540;DHT22;15906;52.046;4.724;2023-08-08T13:52:25;20.30;99.90
27540;DHT22;15906;52.046;4.724;2023-08-08T13:54:51;20.50;99.90
27540;DHT22;15906;52.046;4.724;2023-08-08T13:57:17;20.60;99.90
27540;DHT22;15906;52.046;4.724;2023-08-08T13:59:42;20.70;99.90
27540;DHT22;15906;52.046;4.724;2023-08-08T14:02:08;20.80;99.90
27540;DHT22;15906;52.046;4.724;2023-08-08T14:04:33;20.80;99.90
27540;DHT22;15906;52.046;4.724;2023-08-08T14:06:59;21.00;99.90
27540;DHT22;15906;52.046;4.724;2023-08-08T14:09:24;21.10;99.90
27540;DHT22;15906;52.046;4.724;2023-08-08T14:11:50;21.00;99.90
27540;DHT22;15906;52.046;4.724;2023-08-08T14:14:15;21.00;99.90
27540;DHT22;15906;52.046;4.724;2023-08-08T14:16:41;20.80;99.90
27540;DHT22;15906;52.046;4.724;2023-08-08T14:19:06;20.60;99.90
27540;DHT22;15906;52.046;4.724;2023-08-08T14:21:33;20.60;99.90
27540;DHT22;15906;52.046;4.724;2023-08-08T14:23:58;20.70;99.90
27540;DHT22;15906;52.046;4.724;2023-08-08T14:26:24;20.90;99.90
27540;DHT22;15906;52.046;4.724;2023-08-08T14:28:50;20.80;99.90
27540;DHT22;15906;52.046;4.724;2023-08-08T14:31:15;20.70;99.90
27540;DHT22;15906;52.046;4.724;2023-08-08T14:33:41;20.50;99.90
27540;DHT22;15906;52.046;4.724;2023-08-08T14:36:06;20.30;99.90
27540;DHT22;15906;52.046;4.724;2023-08-08T14:38:34;20.20;99.90
27540;DHT22;15906;52.046;4.724;2023-08-08T14:41:01;20.30;99.90
27540;DHT22;15906;52.046;4.724;2023-08-08T14:43:27;20.00;99.90
27540;DHT22;15906;52.046;4.724;2023-08-08T14:45:52;20.00;99.90
27540;DHT22;15906;52.046;4.724;2023-08-08T14:48:18;20.00;99.90
27540;DHT22;15906;52.046;4.724;2023-08-08T14:50:43;19.90;99.90
27540;DHT22;15906;52.046;4.724;2023-08-08T14:53:09;20.00;99.90
27540;DHT22;15906;52.046;4.724;2023-08-08T14:55:35;20.00;99.90
27540;DHT22;15906;52.046;4.724;2023-08-08T14:58:00;19.90;99.90
27540;DHT22;15906;52.046;4.724;2023-08-08T15:00:26;19.90;99.90
27540;DHT22;15906;52.046;4.724;2023-08-08T15:02:51;19.80;99.90
27540;DHT22;15906;52.046;4.724;2023-08-08T15:05:17;19.80;99.90
27540;DHT22;15906;52.046;4.724;2023-08-08T15:07:42;19.80;99.90
27540;DHT22;15906;52.046;4.724;2023-08-08T15:10:08;19.80;99.90
27540;DHT22;15906;52.046;4.724;2023-08-08T15:12:34;19.90;99.90
27540;DHT22;15906;52.046;4.724;2023-08-08T15:15:00;19.90;99.90
27540;DHT22;15906;52.046;4.724;2023-08-08T15:17:26;20.00;99.90
27540;DHT22;15906;52.046;4.724;2023-08-08T15:19:52;20.00;99.90
27540;DHT22;15906;52.046;4.724;2023-08-08T15:22:17;20.00;99.90
27540;DHT22;15906;52.046;4.724;2023-08-08T15:24:43;19.80;99.90
27540;DHT22;15906;52.046;4.724;2023-08-08T15:27:09;20.00;99.90
27540;DHT22;15906;52.046;4.724;2023-08-08T15:29:34;20.00;99.90